createdAt,value
2023-05-01T00:00:14.531Z,99962.38
2023-05-01T00:02:48.447Z,99964.09
2023-05-01T00:05:18.401Z,99957.31
2023-05-01T00:07:48.061Z,99953.75
2023-05-01T00:10:20.588Z,99944.34
2023-05-01T00:12:50.319Z,99943.94
2023-05-01T00:15:20.384Z,99945.03
2023-05-01T00:17:50.220Z,99941.31
2023-05-01T00:20:19.967Z,99923.25
2023-05-01T00:22:49.605Z,99935.66
2023-05-01T00:25:21.901Z,99926.03
2023-05-01T00:27:51.903Z,99920.44
2023-05-01T00:30:21.629Z,99916.97
2023-05-01T00:32:51.415Z,99915.09
2023-05-01T00:35:21.128Z,99914.75
2023-05-01T00:37:51.071Z,99904.81
2023-05-01T00:40:23.492Z,99905.47
2023-05-01T00:42:53.197Z,99899.25
2023-05-01T00:45:23.405Z,99900.94
2023-05-01T00:47:53.251Z,99900.09
2023-05-01T00:50:23.267Z,99888.13
2023-05-01T00:52:53.259Z,99896.63
2023-05-01T00:55:25.944Z,99891.34
2023-05-01T00:57:56.566Z,99889.00
2023-05-01T01:00:26.268Z,99887.63
2023-05-01T01:02:56.120Z,99880.59
2023-05-01T01:05:30.305Z,99869.50
2023-05-01T01:08:08.613Z,99874.63
2023-05-01T01:10:49.818Z,99870.44
2023-05-01T01:13:25.833Z,99867.41
2023-05-01T01:16:03.566Z,99864.31
2023-05-01T01:18:38.854Z,99868.59
2023-05-01T01:21:14.635Z,99870.13
2023-05-01T01:24:22.288Z,99859.22
2023-05-01T01:27:14.768Z,99855.09
2023-05-01T01:30:15.318Z,99845.50
2023-05-01T01:33:03.837Z,99845.38
2023-05-01T01:35:39.111Z,99834.31
2023-05-01T01:38:13.185Z,99839.63
2023-05-01T01:40:53.546Z,99839.53
2023-05-01T01:43:26.511Z,99833.91
2023-05-01T01:46:03.832Z,99832.31
2023-05-01T01:48:39.001Z,99822.56
2023-05-01T01:51:14.582Z,99821.56
2023-05-01T01:53:48.501Z,99816.13
2023-05-01T01:56:21.668Z,99811.31
2023-05-01T01:58:54.002Z,99812.44
2023-05-01T02:01:26.215Z,99800.09
2023-05-01T02:03:58.340Z,99804.00
2023-05-01T02:06:34.148Z,99799.72
2023-05-01T02:09:06.611Z,99791.81
2023-05-01T02:11:39.521Z,99790.16
2023-05-01T02:14:10.748Z,99786.84
2023-05-01T02:16:41.053Z,99794.19
2023-05-01T02:19:11.614Z,99787.22
2023-05-01T02:21:48.051Z,99788.19
2023-05-01T02:24:19.054Z,99786.59
2023-05-01T02:26:53.092Z,99792.81
2023-05-01T02:29:22.753Z,99782.06
2023-05-01T02:31:52.469Z,99781.16
2023-05-01T02:34:22.488Z,99777.81
2023-05-01T02:36:54.742Z,99772.72
2023-05-01T02:39:24.837Z,99777.09
2023-05-01T02:41:58.561Z,99776.91
2023-05-01T02:44:30.963Z,99765.38
2023-05-01T02:47:03.637Z,99765.97
2023-05-01T02:49:34.682Z,99765.97
2023-05-01T02:52:08.077Z,99763.34
2023-05-01T02:54:38.825Z,99758.97
2023-05-01T02:57:08.755Z,99763.41
2023-05-01T02:59:38.451Z,99749.16
2023-05-01T03:02:08.182Z,99742.44
2023-05-01T03:04:38.250Z,99742.19
2023-05-01T03:07:10.967Z,99737.63
2023-05-01T03:09:40.693Z,99738.69
2023-05-01T03:12:10.912Z,99740.97
2023-05-01T03:14:40.594Z,99735.28
2023-05-01T03:17:11.313Z,99733.94
2023-05-01T03:19:42.517Z,99732.63
2023-05-01T03:22:15.238Z,99735.69
2023-05-01T03:24:44.954Z,99725.03
2023-05-01T03:27:14.709Z,99724.81
2023-05-01T03:29:47.336Z,99718.03
2023-05-01T03:32:18.300Z,99723.47
2023-05-01T03:34:49.711Z,99721.31
2023-05-01T03:37:23.579Z,99722.09
2023-05-01T03:39:54.384Z,99727.34
2023-05-01T03:42:50.268Z,99720.47
2023-05-01T03:45:23.992Z,99721.47
2023-05-01T03:47:53.887Z,99715.44
2023-05-01T03:50:23.768Z,99715.97
2023-05-01T03:52:57.756Z,99706.25
2023-05-01T03:55:27.468Z,99706.44
2023-05-01T03:57:57.194Z,99706.50
2023-05-01T04:00:27.833Z,99709.00
2023-05-01T04:02:58.708Z,99707.34
2023-05-01T04:05:28.663Z,99705.19
2023-05-01T04:08:06.180Z,99702.38
2023-05-01T04:10:36.231Z,99699.78
2023-05-01T04:13:07.921Z,99695.25
2023-05-01T04:15:38.754Z,99692.19
2023-05-01T04:18:08.504Z,99696.38
2023-05-01T04:20:38.528Z,99690.63
2023-05-01T04:23:11.790Z,99687.88
2023-05-01T04:25:41.578Z,99687.00
2023-05-01T04:28:16.937Z,99680.09
2023-05-01T04:30:46.621Z,99677.19
2023-05-01T04:33:16.575Z,99672.38
2023-05-01T04:35:46.328Z,99669.66
2023-05-01T04:38:18.666Z,99675.75
2023-05-01T04:40:48.666Z,99664.59
2023-05-01T04:43:18.341Z,99666.53
2023-05-01T04:45:48.156Z,99672.03
2023-05-01T04:48:17.875Z,99662.56
2023-05-01T04:50:47.679Z,99663.88
2023-05-01T04:53:20.087Z,99662.03
2023-05-01T04:55:49.994Z,99668.75
2023-05-01T04:58:20.840Z,99658.47
2023-05-01T05:00:54.214Z,99661.53
2023-05-01T05:03:25.992Z,99654.16
2023-05-01T05:05:55.873Z,99663.47
2023-05-01T05:08:29.011Z,99659.13
2023-05-01T05:11:04.585Z,99661.47
2023-05-01T05:13:54.812Z,99667.28
2023-05-01T05:16:24.569Z,99663.06
2023-05-01T05:18:54.296Z,99665.88
2023-05-01T05:21:24.036Z,99669.13
2023-05-01T05:24:00.992Z,99654.66
2023-05-01T05:26:31.263Z,99654.66
2023-05-01T05:29:04.798Z,99648.16
2023-05-01T05:31:35.301Z,99654.84
2023-05-01T05:34:05.359Z,99644.06
2023-05-01T05:36:35.715Z,99635.88
2023-05-01T05:39:08.174Z,99644.34
2023-05-01T05:41:38.455Z,99639.59
2023-05-01T05:44:08.264Z,99635.56
2023-05-01T05:46:38.299Z,99635.56
2023-05-01T05:49:08.161Z,99631.41
2023-05-01T05:51:37.997Z,99627.97
2023-05-01T05:54:11.792Z,99625.06
2023-05-01T05:56:41.715Z,99633.94
2023-05-01T05:59:12.079Z,99630.94
2023-05-01T06:01:42.948Z,99627.47
2023-05-01T06:04:14.316Z,99623.16
2023-05-01T06:06:45.708Z,99622.66
2023-05-01T06:09:19.148Z,99624.81
2023-05-01T06:11:48.934Z,99621.66
2023-05-01T06:14:19.346Z,99620.78
2023-05-01T06:16:49.349Z,99623.59
2023-05-01T06:19:19.052Z,99618.78
2023-05-01T06:21:52.751Z,99614.94
2023-05-01T06:24:25.049Z,99617.91
2023-05-01T06:26:56.615Z,99620.25
2023-05-01T06:29:26.325Z,99615.00
2023-05-01T06:31:56.622Z,99611.06
2023-05-01T06:34:26.519Z,99617.47
2023-05-01T06:36:57.474Z,99615.81
2023-05-01T06:39:29.798Z,99610.31
2023-05-01T06:41:59.631Z,99604.63
2023-05-01T06:44:41.741Z,99601.53
2023-05-01T06:47:11.879Z,99602.03
2023-05-01T06:49:43.818Z,99596.50
2023-05-01T06:52:13.647Z,99592.53
2023-05-01T06:54:45.990Z,99603.69
2023-05-01T06:57:15.762Z,99597.66
2023-05-01T06:59:45.937Z,99604.72
2023-05-01T07:02:15.745Z,99592.72
2023-05-01T07:04:45.999Z,99587.13
2023-05-01T07:07:15.778Z,99582.75
2023-05-01T07:09:47.999Z,99588.03
2023-05-01T07:12:17.660Z,99583.41
2023-05-01T07:14:47.531Z,99586.38
2023-05-01T07:17:17.606Z,99574.00
2023-05-01T07:19:47.363Z,99574.31
2023-05-01T07:22:17.087Z,99570.84
2023-05-01T07:24:49.384Z,99572.00
2023-05-01T07:27:19.048Z,99577.56
2023-05-01T07:29:48.781Z,99562.09
2023-05-01T07:32:18.509Z,99562.13
2023-05-01T07:34:48.229Z,99563.75
2023-05-01T07:37:18.919Z,99559.00
2023-05-01T07:39:51.200Z,99548.19
2023-05-01T07:42:21.035Z,99554.88
2023-05-01T07:44:53.220Z,99552.97
2023-05-01T07:47:23.560Z,99551.06
2023-05-01T07:49:53.319Z,99530.75
2023-05-01T07:52:23.253Z,99534.41
2023-05-01T07:54:55.816Z,99530.94
2023-05-01T07:57:26.046Z,99528.63
2023-05-01T07:59:57.937Z,99528.25
2023-05-01T08:02:28.199Z,99529.50
2023-05-01T08:04:58.136Z,99525.00
2023-05-01T08:07:27.960Z,99518.34
2023-05-01T08:10:00.743Z,99521.94
2023-05-01T08:12:31.792Z,99511.81
2023-05-01T08:15:01.470Z,99508.69
2023-05-01T08:17:31.676Z,99514.22
2023-05-01T08:20:03.045Z,99511.34
2023-05-01T08:22:33.356Z,99502.56
2023-05-01T08:25:06.042Z,99501.22
2023-05-01T08:27:35.821Z,99496.81
2023-05-01T08:30:05.773Z,99500.84
2023-05-01T08:32:35.641Z,99497.44
2023-05-01T08:35:05.685Z,99499.97
2023-05-01T08:37:35.445Z,99494.22
2023-05-01T08:40:09.861Z,99493.78
2023-05-01T08:42:40.141Z,99494.84
2023-05-01T08:45:12.062Z,99493.50
2023-05-01T08:47:43.660Z,99498.63
2023-05-01T08:50:14.352Z,99487.22
2023-05-01T08:52:45.133Z,99480.59
2023-05-01T08:55:18.607Z,99471.72
2023-05-01T08:57:49.528Z,99475.94
2023-05-01T09:00:22.353Z,99487.69
2023-05-01T09:02:53.630Z,99471.25
2023-05-01T09:05:23.871Z,99464.47
2023-05-01T09:07:53.625Z,99461.22
2023-05-01T09:10:27.391Z,99454.66
2023-05-01T09:12:59.478Z,99451.81
2023-05-01T09:15:30.608Z,99454.66
2023-05-01T09:18:04.185Z,99453.69
2023-05-01T09:20:37.447Z,99445.94
2023-05-01T09:23:07.270Z,99437.53
2023-05-01T09:25:39.719Z,99443.28
2023-05-01T09:28:10.397Z,99436.31
2023-05-01T09:30:42.297Z,99447.34
2023-05-01T09:33:13.836Z,99429.94
2023-05-01T09:35:54.526Z,99429.81
2023-05-01T09:38:25.669Z,99432.78
2023-05-01T09:41:08.093Z,99427.03
2023-05-01T09:43:37.980Z,99421.44
2023-05-01T09:46:10.088Z,99419.47
2023-05-01T09:48:41.222Z,99420.88
2023-05-01T09:51:24.752Z,99414.69
2023-05-01T09:53:55.070Z,99407.38
2023-05-01T09:56:28.327Z,99405.72
2023-05-01T09:59:00.075Z,99409.47
2023-05-01T10:01:43.505Z,99398.75
2023-05-01T10:04:13.442Z,99397.19
2023-05-01T10:06:44.151Z,99394.34
2023-05-01T10:09:17.853Z,99399.88
2023-05-01T10:11:55.901Z,99399.06
2023-05-01T10:14:28.314Z,99400.88
2023-05-01T10:16:58.294Z,99390.06
2023-05-01T10:19:28.621Z,99386.19
2023-05-01T10:21:58.674Z,99393.81
2023-05-01T10:24:28.538Z,99388.03
2023-05-01T10:27:03.686Z,99391.25
2023-05-01T10:29:34.622Z,99372.63
2023-05-01T10:32:04.985Z,99386.53
2023-05-01T10:34:37.804Z,99376.34
2023-05-01T10:37:15.678Z,99380.72
2023-05-01T10:39:45.367Z,99379.94
2023-05-01T10:42:18.541Z,99371.50
2023-05-01T10:44:49.786Z,99383.06
2023-05-01T10:47:50.232Z,99364.44
2023-05-01T10:50:19.967Z,99364.91
2023-05-01T10:53:20.135Z,99367.13
2023-05-01T10:55:51.460Z,99356.22
2023-05-01T10:58:52.022Z,99351.09
2023-05-01T11:01:38.109Z,99361.16
2023-05-01T11:04:10.805Z,99347.56
2023-05-01T11:06:40.621Z,99346.97
2023-05-01T11:09:41.361Z,99342.84
2023-05-01T11:12:12.684Z,99343.69
2023-05-01T11:15:08.499Z,99334.97
2023-05-01T11:17:52.602Z,99327.25
2023-05-01T11:20:52.712Z,99327.09
2023-05-01T11:23:23.943Z,99326.94
2023-05-01T11:26:03.830Z,99326.44
2023-05-01T11:28:34.541Z,99311.31
2023-05-01T11:31:05.134Z,99321.97
2023-05-01T11:33:37.632Z,99313.94
2023-05-01T11:36:09.234Z,99318.50
2023-05-01T11:38:40.047Z,99315.38
2023-05-01T11:41:09.822Z,99315.41
2023-05-01T11:43:51.961Z,99314.84
2023-05-01T11:46:30.133Z,99316.28
2023-05-01T11:49:04.338Z,99312.03
2023-05-01T11:51:35.065Z,99313.22
2023-05-01T11:54:05.822Z,99301.59
2023-05-01T11:56:36.874Z,99302.78
2023-05-01T11:59:15.816Z,99310.06
2023-05-01T12:01:47.366Z,99303.63
2023-05-01T12:04:29.632Z,99297.53
2023-05-01T12:07:02.007Z,99309.16
2023-05-01T12:09:32.382Z,99298.25
2023-05-01T12:12:03.549Z,99305.13
2023-05-01T12:14:33.874Z,99294.38
2023-05-01T12:17:04.371Z,99302.63
2023-05-01T12:19:37.051Z,99296.66
2023-05-01T12:22:10.271Z,99302.00
2023-05-01T12:24:40.183Z,99305.09
2023-05-01T12:27:10.169Z,99307.50
2023-05-01T12:29:44.925Z,99307.03
2023-05-01T12:32:14.925Z,99310.50
2023-05-01T12:34:48.552Z,99294.22
2023-05-01T12:37:18.393Z,99302.63
2023-05-01T12:39:48.661Z,99300.38
2023-05-01T12:42:18.848Z,99298.13
2023-05-01T12:44:48.811Z,99308.59
2023-05-01T12:47:18.554Z,99298.97
2023-05-01T12:49:51.128Z,99295.03
2023-05-01T12:52:30.148Z,99300.78
2023-05-01T12:55:05.914Z,99298.19
2023-05-01T12:57:36.789Z,99293.81
2023-05-01T13:00:07.866Z,99288.47
2023-05-01T13:02:37.990Z,99299.34
2023-05-01T13:05:14.773Z,99292.25
2023-05-01T13:07:51.437Z,99282.91
2023-05-01T13:10:34.401Z,99283.66
2023-05-01T13:13:04.402Z,99286.44
2023-05-01T13:15:34.260Z,99280.06
2023-05-01T13:18:07.294Z,99288.78
2023-05-01T13:20:41.368Z,99284.13
2023-05-01T13:23:13.513Z,99284.16
2023-05-01T13:25:43.462Z,99277.38
2023-05-01T13:28:13.559Z,99276.69
2023-05-01T13:30:43.348Z,99282.03
2023-05-01T13:33:13.883Z,99283.78
2023-05-01T13:35:46.291Z,99285.81
2023-05-01T13:38:16.677Z,99277.41
2023-05-01T13:40:46.572Z,99268.94
2023-05-01T13:43:17.751Z,99266.88
2023-05-01T13:45:47.602Z,99266.47
2023-05-01T13:48:20.270Z,99268.81
2023-05-01T13:50:52.800Z,99269.53
2023-05-01T13:53:25.442Z,99267.16
2023-05-01T13:55:55.193Z,99268.38
2023-05-01T13:58:24.889Z,99269.63
2023-05-01T14:00:54.953Z,99271.00
2023-05-01T14:03:25.629Z,99272.00
2023-05-01T14:05:58.098Z,99273.69
2023-05-01T14:08:31.257Z,99256.94
2023-05-01T14:11:01.569Z,99259.53
2023-05-01T14:13:31.415Z,99257.81
2023-05-01T14:16:01.445Z,99259.06
2023-05-01T14:18:31.514Z,99252.94
2023-05-01T14:21:05.017Z,99252.00
2023-05-01T14:23:35.792Z,99256.25
2023-05-01T14:26:08.291Z,99258.69
2023-05-01T14:28:44.827Z,99243.50
2023-05-01T14:31:19.931Z,99243.34
2023-05-01T14:33:50.009Z,99238.22
2023-05-01T14:36:22.566Z,99240.59
2023-05-01T14:38:52.442Z,99246.25
2023-05-01T14:41:22.493Z,99247.53
2023-05-01T14:43:53.973Z,99236.53
2023-05-01T14:46:31.373Z,99236.03
2023-05-01T14:49:02.240Z,99235.69
2023-05-01T14:51:36.078Z,99225.25
2023-05-01T14:54:06.291Z,99227.53
2023-05-01T14:56:36.189Z,99224.03
2023-05-01T14:59:06.407Z,99230.25
2023-05-01T15:01:36.889Z,99224.38
2023-05-01T15:04:07.803Z,99224.19
2023-05-01T15:06:40.266Z,99226.56
2023-05-01T15:09:10.208Z,99236.16
2023-05-01T15:11:39.945Z,99226.50
2023-05-01T15:14:09.624Z,99232.84
2023-05-01T15:16:39.386Z,99230.75
2023-05-01T15:19:09.053Z,99232.63
2023-05-01T15:21:41.416Z,99226.03
2023-05-01T15:24:11.134Z,99228.38
2023-05-01T15:26:41.061Z,99230.75
2023-05-01T15:29:10.767Z,99220.31
2023-05-01T15:31:40.564Z,99227.00
2023-05-01T15:34:10.352Z,99229.25
2023-05-01T15:36:42.609Z,99222.41
2023-05-01T15:39:13.402Z,99223.56
2023-05-01T15:41:43.461Z,99225.84
2023-05-01T15:44:13.374Z,99219.38
2023-05-01T15:46:45.893Z,99222.91
2023-05-01T15:49:15.656Z,99221.59
2023-05-01T15:51:48.078Z,99219.72
2023-05-01T15:54:17.774Z,99220.66
2023-05-01T15:56:47.477Z,99215.44
2023-05-01T15:59:17.731Z,99218.84
2023-05-01T16:01:47.690Z,99221.44
2023-05-01T16:04:17.460Z,99216.56
2023-05-01T16:06:49.850Z,99218.97
2023-05-01T16:09:20.338Z,99222.72
2023-05-01T16:11:50.204Z,99221.63
2023-05-01T16:14:20.666Z,99223.38
2023-05-01T16:16:51.186Z,99217.28
2023-05-01T16:19:21.092Z,99213.25
2023-05-01T16:21:53.341Z,99216.53
2023-05-01T16:24:23.417Z,99220.50
2023-05-01T16:26:53.356Z,99223.31
2023-05-01T16:29:23.388Z,99231.91
2023-05-01T16:31:53.555Z,99218.59
2023-05-01T16:34:27.655Z,99220.69
2023-05-01T16:37:00.166Z,99223.16
2023-05-01T16:39:30.117Z,99222.91
2023-05-01T16:41:59.935Z,99214.53
2023-05-01T16:44:30.441Z,99219.78
2023-05-01T16:47:06.136Z,99226.09
2023-05-01T16:49:36.371Z,99228.72
2023-05-01T16:52:13.507Z,99224.41
2023-05-01T16:54:43.645Z,99237.03
2023-05-01T16:57:13.538Z,99229.44
2023-05-01T16:59:43.403Z,99230.88
2023-05-01T17:02:13.594Z,99237.16
2023-05-01T17:04:43.652Z,99241.88
2023-05-01T17:07:16.170Z,99239.31
2023-05-01T17:09:46.043Z,99235.66
2023-05-01T17:12:15.830Z,99236.88
2023-05-01T17:14:45.744Z,99232.19
2023-05-01T17:17:15.749Z,99234.50
2023-05-01T17:19:45.472Z,99232.97
2023-05-01T17:22:17.945Z,99238.16
2023-05-01T17:24:47.858Z,99232.09
2023-05-01T17:27:17.726Z,99231.69
2023-05-01T17:29:47.545Z,99232.34
2023-05-01T17:32:33.183Z,99237.09
2023-05-01T17:35:07.460Z,99234.06
2023-05-01T17:37:40.272Z,99237.13
2023-05-01T17:40:11.667Z,99225.69
2023-05-01T17:42:42.197Z,99228.69
2023-05-01T17:45:13.368Z,99229.66
2023-05-01T17:47:45.157Z,99237.91
2023-05-01T17:50:16.181Z,99229.66
2023-05-01T17:52:48.656Z,99237.06
2023-05-01T17:55:18.668Z,99231.69
2023-05-01T17:57:48.855Z,99234.44
2023-05-01T18:00:19.680Z,99230.59
2023-05-01T18:02:49.994Z,99230.31
2023-05-01T18:05:20.007Z,99236.06
2023-05-01T18:07:52.252Z,99233.56
2023-05-01T18:10:22.591Z,99231.63
2023-05-01T18:12:52.787Z,99236.25
2023-05-01T18:15:23.166Z,99237.44
2023-05-01T18:17:53.250Z,99235.31
2023-05-01T18:20:23.046Z,99247.28
2023-05-01T18:22:56.245Z,99241.47
2023-05-01T18:25:25.982Z,99249.22
2023-05-01T18:27:55.831Z,99242.34
2023-05-01T18:30:25.666Z,99253.31
2023-05-01T18:32:55.504Z,99245.63
2023-05-01T18:35:25.464Z,99248.84
2023-05-01T18:37:57.842Z,99255.47
2023-05-01T18:40:27.968Z,99249.78
2023-05-01T18:42:58.024Z,99260.72
2023-05-01T18:45:27.891Z,99251.41
2023-05-01T18:47:57.721Z,99250.56
2023-05-01T18:50:27.588Z,99260.84
2023-05-01T18:53:00.015Z,99253.88
2023-05-01T18:55:29.792Z,99251.59
2023-05-01T18:58:00.616Z,99258.47
2023-05-01T19:00:30.861Z,99256.78
2023-05-01T19:03:00.628Z,99256.16
2023-05-01T19:05:30.496Z,99258.94
2023-05-01T19:08:05.402Z,99256.91
2023-05-01T19:10:37.378Z,99263.13
2023-05-01T19:13:08.634Z,99260.47
2023-05-01T19:15:38.356Z,99267.34
2023-05-01T19:18:08.728Z,99270.75
2023-05-01T19:20:38.789Z,99268.72
2023-05-01T19:23:11.010Z,99265.16
2023-05-01T19:25:40.724Z,99272.72
2023-05-01T19:28:10.414Z,99268.31
2023-05-01T19:30:41.409Z,99276.16
2023-05-01T19:33:11.630Z,99279.28
2023-05-01T19:35:41.362Z,99273.50
2023-05-01T19:38:13.638Z,99276.31
2023-05-01T19:40:45.115Z,99269.38
2023-05-01T19:43:16.124Z,99277.50
2023-05-01T19:45:46.026Z,99271.75
2023-05-01T19:48:15.770Z,99277.00
2023-05-01T19:50:51.201Z,99273.97
2023-05-01T19:53:23.751Z,99286.22
2023-05-01T19:55:53.669Z,99285.06
2023-05-01T19:58:23.315Z,99281.66
2023-05-01T20:00:56.330Z,99285.09
2023-05-01T20:03:26.656Z,99289.78
2023-05-01T20:05:56.881Z,99282.50
2023-05-01T20:08:29.318Z,99287.25
2023-05-01T20:10:59.161Z,99293.38
2023-05-01T20:13:28.786Z,99283.16
2023-05-01T20:15:58.542Z,99284.50
2023-05-01T20:18:28.474Z,99284.03
2023-05-01T20:20:58.290Z,99297.25
2023-05-01T20:23:30.590Z,99282.72
2023-05-01T20:26:00.348Z,99288.22
2023-05-01T20:28:30.092Z,99283.47
2023-05-01T20:31:00.353Z,99291.28
2023-05-01T20:33:30.006Z,99282.41
2023-05-01T20:36:00.465Z,99296.16
2023-05-01T20:38:32.752Z,99298.13
2023-05-01T20:41:02.517Z,99295.66
2023-05-01T20:43:32.290Z,99297.34
2023-05-01T20:46:02.027Z,99297.63
2023-05-01T20:48:31.848Z,99308.81
2023-05-01T20:51:01.589Z,99306.59
2023-05-01T20:53:33.904Z,99306.72
2023-05-01T20:56:03.654Z,99309.38
2023-05-01T20:58:33.328Z,99313.63
2023-05-01T21:01:03.131Z,99315.84
2023-05-01T21:03:32.963Z,99306.34
2023-05-01T21:06:03.374Z,99311.25
2023-05-01T21:08:36.363Z,99308.84
2023-05-01T21:11:06.348Z,99307.44
2023-05-01T21:13:36.089Z,99314.88
2023-05-01T21:16:09.077Z,99311.63
2023-05-01T21:18:39.205Z,99318.47
2023-05-01T21:21:09.049Z,99319.84
2023-05-01T21:23:48.680Z,99324.81
2023-05-01T21:26:19.575Z,99324.81
2023-05-01T21:28:49.481Z,99325.94
2023-05-01T21:31:19.850Z,99326.44
2023-05-01T21:33:50.811Z,99340.69
2023-05-01T21:36:20.961Z,99365.13
2023-05-01T21:38:53.325Z,99351.88
2023-05-01T21:41:23.003Z,99353.53
2023-05-01T21:43:53.262Z,99347.53
2023-05-01T21:46:23.009Z,99358.72
2023-05-01T21:48:54.115Z,99355.72
2023-05-01T21:51:28.654Z,99357.22
2023-05-01T21:54:02.672Z,99350.38
2023-05-01T21:56:33.354Z,99355.34
2023-05-01T21:59:04.132Z,99356.94
2023-05-01T22:01:34.470Z,99362.13
2023-05-01T22:04:04.346Z,99367.97
2023-05-01T22:06:34.195Z,99369.97
2023-05-01T22:09:06.794Z,99363.75
2023-05-01T22:11:36.457Z,99374.47
2023-05-01T22:14:06.480Z,99380.59
2023-05-01T22:16:36.590Z,99380.25
2023-05-01T22:19:06.457Z,99384.34
2023-05-01T22:21:36.268Z,99398.28
2023-05-01T22:24:09.098Z,99395.84
2023-05-01T22:26:38.865Z,99394.13
2023-05-01T22:29:08.681Z,99390.72
2023-05-01T22:31:38.546Z,99399.00
2023-05-01T22:34:09.190Z,99402.91
2023-05-01T22:36:39.017Z,99408.72
2023-05-01T22:39:11.669Z,99410.03
2023-05-01T22:41:41.595Z,99418.00
2023-05-01T22:44:11.428Z,99416.69
2023-05-01T22:46:41.609Z,99422.72
2023-05-01T22:49:11.490Z,99421.16
2023-05-01T22:51:41.342Z,99428.88
2023-05-01T22:54:13.653Z,99434.97
2023-05-01T22:56:43.923Z,99432.75
2023-05-01T22:59:13.594Z,99442.66
2023-05-01T23:01:43.303Z,99444.34
2023-05-01T23:04:13.246Z,99449.31
2023-05-01T23:06:43.421Z,99450.41
2023-05-01T23:09:16.276Z,99457.00
2023-05-01T23:11:48.847Z,99459.22
2023-05-01T23:14:20.794Z,99463.09
2023-05-01T23:16:50.819Z,99470.19
2023-05-01T23:19:25.028Z,99483.13
2023-05-01T23:22:08.812Z,99487.50
2023-05-01T23:24:47.872Z,99488.34
2023-05-01T23:27:18.873Z,99497.69
2023-05-01T23:29:57.577Z,99505.38
2023-05-01T23:32:29.560Z,99501.00
2023-05-01T23:35:05.867Z,99501.53
2023-05-01T23:37:35.841Z,99501.78
2023-05-01T23:40:09.693Z,99508.09
2023-05-01T23:42:39.902Z,99517.97
2023-05-01T23:45:11.237Z,99516.31
2023-05-01T23:47:41.562Z,99518.53
2023-05-01T23:50:12.767Z,99521.03
2023-05-01T23:52:42.528Z,99520.19
2023-05-01T23:55:14.895Z,99508.13
2023-05-01T23:57:44.593Z,99518.84
